Time;durP1;ratioP1;P1;durP2;ratioP2;P2;SDS_P1;SDS_P2;PMS_P1;PMS_P2;Temp;Humidity;BMP_temperature;BMP_pressure;BME280_temperature;BME280_humidity;BME280_pressure;Samples;Min_cycle;Max_cycle;Signal;HPM_P1;HPM_P2
2021/01/18 00:00:59;;;;;;;73.03;26.85;;;;;;;-9.99;85.35;95229.44;5106387;28;20058;-75
2021/01/18 00:03:25;;;;;;;55.63;21.58;;;;;;;-9.98;84.87;95231.03;5106916;28;20039;-74
2021/01/18 00:05:52;;;;;;;45.60;18.88;;;;;;;-9.96;84.21;95226.72;5107417;27;20059;-75
2021/01/18 00:08:19;;;;;;;70.20;21.60;;;;;;;-9.83;83.36;95230.09;5107441;28;20040;-75
2021/01/18 00:10:45;;;;;;;68.60;23.30;;;;;;;-9.74;82.95;95227.88;5106314;28;20039;-74
2021/01/18 00:13:11;;;;;;;107.80;32.00;;;;;;;-9.63;82.45;95245.69;5107820;28;21174;-75
2021/01/18 00:15:38;;;;;;;137.13;43.17;;;;;;;-9.49;81.82;95248.13;5107248;28;20566;-75
2021/01/18 00:18:04;;;;;;;82.50;31.90;;;;;;;-9.67;82.84;95249.28;5106890;28;20533;-75
2021/01/18 00:20:31;;;;;;;80.13;25.80;;;;;;;-9.67;82.78;95250.09;5106664;28;20051;-75
2021/01/18 00:22:58;;;;;;;69.95;24.27;;;;;;;-9.54;81.78;95252.66;5106662;28;20035;-75
2021/01/18 00:25:25;;;;;;;70.82;25.67;;;;;;;-9.56;82.02;95259.50;5106565;28;21097;-74
2021/01/18 00:27:52;;;;;;;62.20;22.83;;;;;;;-9.57;81.75;95262.94;5106171;28;20069;-75
2021/01/18 00:30:21;;;;;;;57.17;18.13;;;;;;;-9.49;81.53;95257.38;5106954;28;20097;-74
2021/01/18 00:32:48;;;;;;;33.83;15.38;;;;;;;-9.49;80.18;95255.69;5107140;28;20055;-74
2021/01/18 00:35:17;;;;;;;40.20;14.95;;;;;;;-9.38;79.72;95261.75;5106694;28;20083;-74
2021/01/18 00:37:52;;;;;;;35.80;14.60;;;;;;;-9.36;79.36;95264.97;5105791;28;20032;-74
2021/01/18 00:40:20;;;;;;;33.60;13.02;;;;;;;-9.34;78.76;95260.66;5105862;28;20565;-74
2021/01/18 00:42:47;;;;;;;30.83;13.70;;;;;;;-9.36;78.27;95267.50;5107465;28;20035;-74
2021/01/18 00:45:15;;;;;;;20.73;9.93;;;;;;;-9.39;77.79;95257.63;5106374;28;20039;-74
2021/01/18 00:47:45;;;;;;;25.38;11.70;;;;;;;-9.50;77.12;95256.59;5106040;28;20032;-75
2021/01/18 00:50:16;;;;;;;21.00;10.70;;;;;;;-9.48;76.93;95269.09;5106899;28;20066;-74
2021/01/18 00:52:45;;;;;;;25.83;9.88;;;;;;;-9.51;77.01;95265.03;5107391;28;20028;-75
2021/01/18 00:55:18;;;;;;;29.33;11.23;;;;;;;-9.55;76.79;95268.66;5105858;28;20547;-74
2021/01/18 00:58:12;;;;;;;33.20;14.23;;;;;;;-9.65;76.48;95258.38;5100780;28;21867;-74
2021/01/18 01:00:42;;;;;;;41.35;18.33;;;;;;;-9.60;77.08;95278.25;5088461;28;20652;-74
2021/01/18 01:03:12;;;;;;;54.55;21.00;;;;;;;-9.62;76.93;95277.53;5106484;28;20042;-75
2021/01/18 01:05:38;;;;;;;59.35;20.55;;;;;;;-9.71;76.36;95268.81;5106369;27;20081;-75
2021/01/18 01:08:05;;;;;;;52.80;19.77;;;;;;;-9.61;76.09;95281.69;5107455;28;20023;-75
2021/01/18 01:10:33;;;;;;;49.28;17.88;;;;;;;-9.61;76.34;95277.44;5106246;27;20051;-74
2021/01/18 01:13:04;;;;;;;48.97;17.48;;;;;;;-9.68;76.90;95270.38;5106634;27;20047;-75
2021/01/18 01:15:32;;;;;;;43.97;17.35;;;;;;;-9.98;78.97;95266.31;5105319;28;20131;-74
2021/01/18 01:17:58;;;;;;;45.03;17.05;;;;;;;-10.00;79.77;95273.16;5106544;28;20031;-74
2021/01/18 01:20:25;;;;;;;43.47;16.80;;;;;;;-9.96;79.69;95274.59;5105815;28;20513;-73
2021/01/18 01:22:53;;;;;;;53.20;20.52;;;;;;;-9.94;79.23;95279.53;5104551;28;20040;-74
2021/01/18 01:25:22;;;;;;;44.25;16.73;;;;;;;-10.00;78.63;95283.25;5105460;28;20177;-73
2021/01/18 01:27:49;;;;;;;44.85;17.02;;;;;;;-9.99;77.83;95279.84;5103752;28;20036;-74
2021/01/18 01:30:24;;;;;;;39.88;16.40;;;;;;;-10.11;77.98;95275.53;5105285;27;20079;-74
2021/01/18 01:32:53;;;;;;;38.05;15.18;;;;;;;-10.07;77.68;95276.97;5105669;28;20035;-74
2021/01/18 01:35:25;;;;;;;42.90;17.27;;;;;;;-10.00;77.03;95288.28;5105345;28;20335;-74
2021/01/18 01:37:51;;;;;;;38.15;16.25;;;;;;;-10.02;76.59;95285.84;5104844;28;20036;-74
2021/01/18 01:40:19;;;;;;;32.97;14.38;;;;;;;-10.18;77.37;95270.88;5104416;28;20544;-74
2021/01/18 01:42:46;;;;;;;34.22;16.13;;;;;;;-10.13;76.96;95282.41;5106294;28;20040;-75
2021/01/18 01:45:14;;;;;;;37.92;14.15;;;;;;;-10.20;76.94;95267.63;5105256;28;20052;-74
2021/01/18 01:47:44;;;;;;;36.00;14.48;;;;;;;-10.21;76.77;95281.16;5105591;28;20121;-74
2021/01/18 01:50:24;;;;;;;32.15;14.30;;;;;;;-10.20;76.21;95277.72;5107796;28;20078;-74
2021/01/18 01:52:55;;;;;;;29.63;12.63;;;;;;;-10.29;76.09;95272.44;5108044;28;20035;-74
2021/01/18 01:55:24;;;;;;;29.58;12.85;;;;;;;-10.30;76.17;95276.63;5107659;28;20053;-74
2021/01/18 01:57:53;;;;;;;29.92;14.38;;;;;;;-10.31;76.11;95275.06;5107136;28;20513;-74
2021/01/18 02:00:20;;;;;;;26.48;11.82;;;;;;;-10.40;76.02;95265.56;5105889;28;20044;-75
2021/01/18 02:02:46;;;;;;;29.23;10.95;;;;;;;-10.34;75.92;95277.78;5107217;28;20517;-74
2021/01/18 02:05:14;;;;;;;25.10;10.40;;;;;;;-10.50;75.78;95254.41;5106410;28;20131;-74
2021/01/18 02:07:42;;;;;;;26.52;11.32;;;;;;;-10.47;75.62;95264.31;5105973;28;20039;-74
2021/01/18 02:10:09;;;;;;;26.67;11.82;;;;;;;-10.47;75.24;95279.41;5107379;28;20043;-75
2021/01/18 02:12:37;;;;;;;23.83;10.50;;;;;;;-10.52;75.08;95281.41;5106052;28;20035;-75
2021/01/18 02:15:34;;;;;;;24.63;10.57;;;;;;;-10.53;75.38;95289.84;5107401;28;20050;-74
2021/01/18 02:18:21;;;;;;;24.33;9.68;;;;;;;-10.66;74.72;95283.03;5106493;28;20031;-75
2021/01/18 02:21:09;;;;;;;28.52;10.57;;;;;;;-10.71;74.79;95286.69;5106993;28;20039;-74
2021/01/18 02:24:12;;;;;;;25.58;10.93;;;;;;;-10.71;75.76;95285.00;5104855;28;20054;-74
2021/01/18 02:27:11;;;;;;;29.65;10.43;;;;;;;-10.75;75.86;95296.13;5107618;28;20432;-74
2021/01/18 02:30:36;;;;;;;24.13;11.45;;;;;;;-10.81;76.12;95291.47;5106112;28;20043;-74
2021/01/18 02:33:28;;;;;;;29.48;11.80;;;;;;;-10.78;76.25;95296.34;5064397;28;20135;-74
2021/01/18 02:36:07;;;;;;;31.05;12.05;;;;;;;-10.72;76.68;95295.97;5047373;28;20044;-74
2021/01/18 02:39:11;;;;;;;24.35;10.10;;;;;;;-10.74;77.70;95287.69;5095890;28;20062;-74
2021/01/18 02:41:54;;;;;;;25.40;10.57;;;;;;;-10.80;77.78;95285.56;5107297;28;20108;-74
2021/01/18 02:44:24;;;;;;;28.35;11.20;;;;;;;-10.80;77.55;95293.09;5105893;28;20120;-75
2021/01/18 02:46:51;;;;;;;37.97;17.35;;;;;;;-10.71;77.85;95292.56;5107418;28;20075;-74
2021/01/18 02:49:20;;;;;;;34.42;16.70;;;;;;;-10.69;77.65;95300.81;5106285;28;20028;-74
2021/01/18 02:51:52;;;;;;;33.03;14.55;;;;;;;-10.78;79.24;95296.34;5107198;28;20216;-74
2021/01/18 02:54:18;;;;;;;31.48;13.50;;;;;;;-10.82;80.29;95299.91;5107415;28;20040;-74
2021/01/18 02:56:51;;;;;;;25.95;11.45;;;;;;;-10.69;79.67;95308.38;5106859;28;20055;-74
2021/01/18 02:59:19;;;;;;;35.10;12.00;;;;;;;-10.75;79.23;95296.13;5105968;28;20051;-74
2021/01/18 03:02:10;;;;;;;32.35;13.18;;;;;;;-10.97;83.44;95317.50;5106189;28;20039;-74
2021/01/18 03:04:37;;;;;;;33.97;12.48;;;;;;;-10.75;82.36;95323.00;5105879;28;20035;-74
2021/01/18 03:07:20;;;;;;;57.70;18.17;;;;;;;-10.58;81.83;95318.63;5105580;28;20150;-74
2021/01/18 03:09:58;;;;;;;59.90;17.40;;;;;;;-10.54;81.69;95303.34;5105995;28;20042;-74
2021/01/18 03:12:29;;;;;;;41.28;16.08;;;;;;;-10.87;83.92;95306.94;5107063;28;20036;-74
2021/01/18 03:14:57;;;;;;;41.78;17.70;;;;;;;-10.78;84.28;95311.44;5106277;28;20114;-74
2021/01/18 03:17:28;;;;;;;67.40;25.70;;;;;;;-10.48;83.56;95318.06;5106098;28;20400;-74
2021/01/18 03:19:56;;;;;;;84.90;30.63;;;;;;;-10.47;83.30;95324.75;5108161;28;20071;-74
2021/01/18 03:22:28;;;;;;;65.72;25.50;;;;;;;-10.52;84.05;95316.66;5110351;28;20047;-74
2021/01/18 03:25:04;;;;;;;71.07;25.08;;;;;;;-10.56;84.45;95310.19;5108478;28;20481;-74
2021/01/18 03:27:49;;;;;;;96.95;28.15;;;;;;;-10.36;83.57;95309.78;5110433;27;20126;-75
2021/01/18 03:30:20;;;;;;;77.60;30.85;;;;;;;-10.22;82.91;95314.78;5108485;27;20124;-74
2021/01/18 03:32:56;;;;;;;95.53;35.15;;;;;;;-10.40;83.56;95310.88;5110269;28;20047;-74
2021/01/18 03:35:23;;;;;;;137.50;44.25;;;;;;;-10.35;83.36;95301.34;5108749;28;20048;-75
2021/01/18 03:37:54;;;;;;;186.20;61.30;;;;;;;-10.20;82.61;95317.22;5107298;28;20155;-74
2021/01/18 03:40:21;;;;;;;119.65;40.55;;;;;;;-10.14;82.34;95308.47;5108097;28;20508;-74
2021/01/18 03:43:00;;;;;;;82.40;30.70;;;;;;;-10.42;84.37;95313.50;5109552;28;20042;-73
2021/01/18 03:45:29;;;;;;;73.20;26.42;;;;;;;-10.45;84.32;95307.81;5110090;28;20451;-74
2021/01/18 03:47:56;;;;;;;59.70;24.77;;;;;;;-10.33;83.61;95297.03;5109665;28;20489;-74
2021/01/18 03:50:23;;;;;;;89.43;31.17;;;;;;;-10.22;83.11;95304.72;5109566;28;20043;-73
2021/01/18 03:52:51;;;;;;;97.20;36.42;;;;;;;-10.08;82.17;95308.09;5110060;28;20050;-73
2021/01/18 03:55:18;;;;;;;76.03;26.90;;;;;;;-10.18;81.19;95301.09;5109492;28;20043;-73
2021/01/18 03:57:47;;;;;;;66.32;26.98;;;;;;;-10.02;80.53;95315.28;5109640;27;20039;-74
2021/01/18 04:00:14;;;;;;;59.05;22.05;;;;;;;-10.10;79.82;95312.41;5109815;28;20065;-74
2021/01/18 04:02:41;;;;;;;46.53;18.92;;;;;;;-10.05;79.37;95325.56;5109190;28;20122;-73
2021/01/18 04:05:08;;;;;;;51.45;22.33;;;;;;;-10.13;79.39;95307.59;5108590;28;20138;-73
2021/01/18 04:07:35;;;;;;;55.28;22.23;;;;;;;-9.97;79.24;95323.38;5108759;28;20067;-74
2021/01/18 04:10:02;;;;;;;51.17;22.30;;;;;;;-10.01;78.95;95322.75;5109449;28;20035;-73
2021/01/18 04:12:28;;;;;;;58.75;25.25;;;;;;;-9.92;79.08;95328.97;5109081;28;20047;-73
2021/01/18 04:14:55;;;;;;;107.43;50.08;;;;;;;-9.87;79.30;95334.50;5107969;28;20044;-73
2021/01/18 04:17:21;;;;;;;81.75;36.10;;;;;;;-9.91;79.75;95333.09;5109200;28;20425;-74
2021/01/18 04:19:48;;;;;;;47.10;22.88;;;;;;;-9.87;79.62;95329.47;5108688;28;20052;-73
2021/01/18 04:22:14;;;;;;;50.00;22.92;;;;;;;-9.86;79.40;95326.06;5107711;28;20476;-73
2021/01/18 04:24:40;;;;;;;57.75;27.75;;;;;;;-9.85;78.81;95326.84;5107551;28;20561;-73
2021/01/18 04:27:08;;;;;;;57.53;28.95;;;;;;;-9.83;78.46;95330.91;5109142;28;20715;-74
2021/01/18 04:29:34;;;;;;;45.40;22.05;;;;;;;-9.76;78.21;95338.09;5108972;28;20042;-73
2021/01/18 04:32:01;;;;;;;32.78;14.32;;;;;;;-9.72;78.10;95331.94;5108280;28;20617;-74
2021/01/18 04:34:27;;;;;;;28.70;12.07;;;;;;;-9.73;78.25;95336.19;5108622;28;20039;-74
2021/01/18 04:36:54;;;;;;;32.90;13.90;;;;;;;-9.72;78.51;95342.03;5108583;28;20050;-74
2021/01/18 04:39:20;;;;;;;30.42;12.70;;;;;;;-9.67;78.36;95350.13;5108501;28;20498;-75
2021/01/18 04:41:47;;;;;;;33.03;11.32;;;;;;;-9.69;78.37;95341.84;5107389;28;20051;-74
2021/01/18 04:44:16;;;;;;;25.95;11.85;;;;;;;-9.77;78.59;95351.63;5107207;28;20047;-74
2021/01/18 04:46:45;;;;;;;27.30;11.40;;;;;;;-9.78;78.34;95349.97;5107544;28;20043;-73
2021/01/18 04:49:14;;;;;;;29.52;12.63;;;;;;;-9.87;77.83;95334.50;5090406;28;20039;-74
2021/01/18 04:51:55;;;;;;;32.45;14.05;;;;;;;-9.77;77.49;95356.66;5108438;28;20043;-74
2021/01/18 04:54:24;;;;;;;28.48;14.40;;;;;;;-9.80;76.40;95350.88;5108512;28;20118;-74
2021/01/18 04:56:56;;;;;;;28.05;13.00;;;;;;;-9.85;76.29;95357.94;5108638;28;20036;-73
2021/01/18 04:59:29;;;;;;;28.55;12.75;;;;;;;-9.93;76.03;95355.06;5107957;28;20043;-73
2021/01/18 05:02:07;;;;;;;24.95;12.10;;;;;;;-10.02;75.88;95360.66;5106838;28;20039;-74
2021/01/18 05:04:38;;;;;;;29.85;12.38;;;;;;;-10.10;76.01;95352.72;5108098;28;20626;-73
2021/01/18 05:07:36;;;;;;;29.80;13.73;;;;;;;-10.27;76.91;95361.31;5107629;28;20054;-73
2021/01/18 05:10:11;;;;;;;46.63;24.10;;;;;;;-10.28;76.76;95354.63;5106699;28;20036;-73
2021/01/18 05:12:39;;;;;;;48.95;22.48;;;;;;;-10.25;76.52;95375.41;5107697;28;20397;-73
2021/01/18 05:15:08;;;;;;;45.75;19.33;;;;;;;-10.41;77.10;95374.72;5108164;28;20050;-73
2021/01/18 05:17:37;;;;;;;34.78;15.93;;;;;;;-10.45;76.80;95378.34;5107480;28;20527;-73
2021/01/18 05:20:04;;;;;;;38.28;15.52;;;;;;;-10.47;76.32;95383.47;5107707;27;20159;-73
2021/01/18 05:22:32;;;;;;;29.98;12.45;;;;;;;-10.54;76.03;95369.59;5106739;28;20040;-73
2021/01/18 05:25:00;;;;;;;26.80;11.32;;;;;;;-10.51;76.15;95384.53;5105423;28;20104;-73
2021/01/18 05:27:27;;;;;;;32.25;13.25;;;;;;;-10.51;75.86;95381.22;5107116;28;20044;-75
2021/01/18 05:29:57;;;;;;;36.78;14.77;;;;;;;-10.50;75.85;95375.28;5107877;28;20043;-75
2021/01/18 05:32:25;;;;;;;53.22;19.17;;;;;;;-10.45;75.62;95388.41;5107262;28;20068;-73
2021/01/18 05:35:10;;;;;;;63.55;24.63;;;;;;;-10.49;75.29;95381.94;5105974;28;20071;-72
2021/01/18 05:37:36;;;;;;;109.70;38.13;;;;;;;-10.49;74.77;95392.00;5105524;28;20296;-72
2021/01/18 05:40:24;;;;;;;52.83;21.77;;;;;;;-10.47;75.18;95391.00;5107316;28;20047;-73
2021/01/18 05:42:53;;;;;;;80.80;29.58;;;;;;;-10.55;75.28;95387.31;5106630;28;20031;-72
2021/01/18 05:45:37;;;;;;;89.88;38.00;;;;;;;-10.70;75.53;95374.72;5107337;28;20050;-75
2021/01/18 05:48:05;;;;;;;181.27;79.50;;;;;;;-10.63;75.96;95391.09;5107443;28;20064;-72
2021/01/18 05:50:33;;;;;;;186.77;82.93;;;;;;;-10.67;76.18;95377.06;5107211;28;20046;-73
2021/01/18 05:53:00;;;;;;;182.40;79.93;;;;;;;-10.72;77.07;95390.81;5106002;28;20404;-73
2021/01/18 05:55:28;;;;;;;166.55;74.00;;;;;;;-10.76;78.26;95400.25;5106980;28;20556;-72
2021/01/18 05:58:04;;;;;;;137.60;58.88;;;;;;;-10.82;79.72;95401.41;5105451;28;20080;-73
2021/01/18 06:00:35;;;;;;;133.85;54.20;;;;;;;-10.69;79.25;95401.50;5106762;28;20047;-73
2021/01/18 06:03:10;;;;;;;312.27;103.97;;;;;;;-10.63;79.32;95396.13;5107107;28;20053;-73
2021/01/18 06:05:38;;;;;;;155.85;59.90;;;;;;;-10.56;79.29;95395.78;5107082;28;20054;-73
2021/01/18 06:08:16;;;;;;;177.30;63.50;;;;;;;-10.48;79.33;95408.72;5105394;28;20062;-73
2021/01/18 06:10:45;;;;;;;154.00;59.15;;;;;;;-10.58;81.05;95409.25;5104945;28;20043;-73
2021/01/18 06:13:33;;;;;;;215.57;80.13;;;;;;;-10.52;83.06;95417.34;5105521;28;20395;-73
2021/01/18 06:16:02;;;;;;;223.25;79.97;;;;;;;-10.22;82.40;95424.81;5105148;28;20039;-72
2021/01/18 06:18:33;;;;;;;192.63;72.30;;;;;;;-9.92;81.88;95413.81;5103573;28;20520;-72
2021/01/18 06:21:02;;;;;;;239.75;85.53;;;;;;;-9.64;80.74;95415.50;5102626;28;20067;-73
2021/01/18 06:23:29;;;;;;;252.70;89.95;;;;;;;-9.70;79.98;95401.56;5104441;28;20111;-73
2021/01/18 06:25:56;;;;;;;187.98;66.93;;;;;;;-9.60;79.76;95419.44;5102958;28;20047;-73
2021/01/18 06:28:27;;;;;;;128.77;48.70;;;;;;;-9.36;79.35;95413.81;5105199;28;20035;-76
2021/01/18 06:30:56;;;;;;;108.70;42.05;;;;;;;-9.22;78.84;95416.28;5105547;28;20051;-75
2021/01/18 06:33:40;;;;;;;96.82;39.30;;;;;;;-9.17;78.96;95409.25;5105536;28;20043;-75
2021/01/18 06:36:21;;;;;;;91.53;38.55;;;;;;;-9.08;78.69;95412.91;5105632;28;20047;-75
2021/01/18 06:38:57;;;;;;;116.60;44.03;;;;;;;-9.04;79.76;95415.16;5104611;28;20067;-75
2021/01/18 06:41:31;;;;;;;177.93;44.88;;;;;;;-8.94;79.87;95399.41;5103762;28;20050;-75
2021/01/18 06:43:59;;;;;;;108.60;30.80;;;;;;;-8.68;80.04;95421.28;5105294;28;20046;-75
2021/01/18 06:46:31;;;;;;;63.63;24.20;;;;;;;-8.51;79.47;95421.91;5104985;28;20042;-75
2021/01/18 06:48:57;;;;;;;64.28;25.27;;;;;;;-8.41;79.35;95407.72;5104048;28;20508;-76
2021/01/18 06:51:25;;;;;;;84.03;32.70;;;;;;;-8.21;79.32;95423.28;5105340;28;20135;-76
2021/01/18 06:53:54;;;;;;;99.10;28.55;;;;;;;-8.26;79.74;95426.94;5105427;28;20077;-75
2021/01/18 06:56:21;;;;;;;101.43;35.03;;;;;;;-8.21;79.96;95443.50;5108382;28;20131;-76
2021/01/18 06:59:29;;;;;;;104.90;35.67;;;;;;;-8.05;80.48;95443.31;5109763;28;20416;-75
2021/01/18 07:02:29;;;;;;;120.55;40.78;;;;;;;-7.78;80.47;95444.00;5108899;28;20466;-76
2021/01/18 07:05:21;;;;;;;106.78;38.53;;;;;;;-7.69;80.38;95450.97;5108278;28;20052;-74
2021/01/18 07:07:56;;;;;;;103.97;33.95;;;;;;;-7.65;80.87;95456.63;5106293;28;20066;-75
2021/01/18 07:10:22;;;;;;;110.05;40.05;;;;;;;-7.81;80.34;95451.81;5108878;28;20047;-75
2021/01/18 07:12:49;;;;;;;117.82;40.72;;;;;;;-7.61;81.21;95462.31;5108393;28;20032;-74
2021/01/18 07:15:15;;;;;;;97.72;41.13;;;;;;;-7.51;81.11;95459.03;5107090;28;20043;-75
2021/01/18 07:17:54;;;;;;;93.65;40.15;;;;;;;-7.38;81.04;95463.25;5107288;28;20134;-75
2021/01/18 07:20:21;;;;;;;99.13;40.38;;;;;;;-7.30;80.40;95463.53;5107681;28;20027;-74
2021/01/18 07:23:13;;;;;;;75.03;31.98;;;;;;;-7.25;81.39;95464.03;5091770;28;20481;-74
2021/01/18 07:25:44;;;;;;;77.38;30.92;;;;;;;-7.14;80.77;95465.81;5107009;28;20055;-75
2021/01/18 07:28:18;;;;;;;90.53;33.85;;;;;;;-7.02;80.74;95464.13;5108510;28;20112;-75
2021/01/18 07:30:45;;;;;;;75.28;32.22;;;;;;;-6.89;80.79;95469.19;5107429;28;20126;-75
2021/01/18 07:33:14;;;;;;;64.10;25.73;;;;;;;-6.97;79.58;95462.09;5089092;28;20036;-75
2021/01/18 07:35:42;;;;;;;52.10;22.88;;;;;;;-7.00;78.20;95482.59;5108764;28;20036;-75
2021/01/18 07:38:34;;;;;;;58.03;25.75;;;;;;;-7.00;78.43;95480.06;5108878;28;20382;-74
2021/01/18 07:41:06;;;;;;;67.63;25.35;;;;;;;-7.00;78.78;95483.38;5105084;28;20094;-74
2021/01/18 07:43:37;;;;;;;63.97;24.85;;;;;;;-7.20;78.83;95487.31;5107142;28;20059;-75
2021/01/18 07:46:25;;;;;;;58.17;23.63;;;;;;;-7.07;80.06;95481.41;5106113;28;20112;-75
2021/01/18 07:48:53;;;;;;;50.95;23.10;;;;;;;-6.98;79.96;95490.88;5105807;28;20031;-75
2021/01/18 07:51:21;;;;;;;42.25;18.60;;;;;;;-6.99;79.59;95479.13;5105864;28;20119;-75
2021/01/18 07:53:47;;;;;;;36.45;17.40;;;;;;;-7.01;79.12;95480.97;5106350;28;20423;-75
2021/01/18 07:56:33;;;;;;;78.65;30.35;;;;;;;-6.95;80.68;95495.72;5107532;28;20512;-76
2021/01/18 07:59:09;;;;;;;44.53;17.17;;;;;;;-6.89;80.25;95475.03;5108934;28;20067;-75
2021/01/18 08:01:39;;;;;;;76.55;27.88;;;;;;;-6.81;78.83;95493.03;5107826;28;20745;-74
2021/01/18 08:04:19;;;;;;;51.17;21.27;;;;;;;-6.84;77.53;95478.06;5107156;28;20044;-75
2021/01/18 08:07:04;;;;;;;67.00;30.63;;;;;;;-6.63;78.53;95495.19;5106834;28;20044;-75
2021/01/18 08:09:31;;;;;;;52.97;21.92;;;;;;;-6.59;77.21;95496.56;5108238;28;20052;-75
2021/01/18 08:12:29;;;;;;;53.30;20.52;;;;;;;-6.48;77.95;95499.19;5108119;28;20114;-74
2021/01/18 08:14:57;;;;;;;42.08;18.55;;;;;;;-6.44;76.68;95500.56;5107201;28;20067;-75
2021/01/18 08:17:23;;;;;;;55.95;24.13;;;;;;;-6.36;76.43;95497.47;5106849;28;20067;-74
2021/01/18 08:20:09;;;;;;;45.25;21.98;;;;;;;-6.44;76.10;95495.50;5107809;28;20043;-74
2021/01/18 08:22:36;;;;;;;51.20;23.13;;;;;;;-6.46;75.94;95492.25;5106574;28;20051;-74
2021/01/18 08:25:04;;;;;;;55.78;23.40;;;;;;;-6.42;76.09;95488.59;5107021;27;20052;-74
2021/01/18 08:27:56;;;;;;;45.47;18.50;;;;;;;-6.28;76.21;95491.84;5106137;28;20489;-74
2021/01/18 08:30:31;;;;;;;57.80;24.77;;;;;;;-6.07;76.64;95492.81;5106157;28;20039;-74
2021/01/18 08:32:58;;;;;;;58.60;24.70;;;;;;;-5.98;76.88;95491.34;5106000;28;20051;-74
2021/01/18 08:35:31;;;;;;;38.88;18.33;;;;;;;-5.89;75.71;95494.88;5105920;28;20430;-74
2021/01/18 08:38:06;;;;;;;50.58;21.73;;;;;;;-5.93;73.21;95496.84;5089368;28;20062;-74
2021/01/18 08:40:43;;;;;;;51.30;19.38;;;;;;;-5.77;73.96;95496.53;5105517;28;20093;-74
2021/01/18 08:43:11;;;;;;;49.92;19.63;;;;;;;-5.64;72.93;95494.69;5105863;28;20527;-74
2021/01/18 08:45:45;;;;;;;38.30;16.30;;;;;;;-5.71;71.51;95490.19;5106971;28;20409;-74
2021/01/18 08:48:19;;;;;;;39.77;16.47;;;;;;;-5.66;73.68;95481.28;5106987;28;20043;-74
2021/01/18 08:50:57;;;;;;;32.50;15.25;;;;;;;-5.78;68.54;95497.44;5106617;28;20453;-74
2021/01/18 08:53:40;;;;;;;22.58;10.43;;;;;;;-5.95;68.49;95504.56;5107142;27;20040;-75
2021/01/18 08:56:27;;;;;;;26.17;13.20;;;;;;;-6.01;67.45;95507.59;5108909;28;20118;-75
2021/01/18 08:58:54;;;;;;;33.42;13.48;;;;;;;-6.02;69.21;95495.81;5107621;28;20548;-75
2021/01/18 09:01:25;;;;;;;25.60;11.18;;;;;;;-5.98;68.86;95497.22;5108111;28;20071;-75
2021/01/18 09:04:01;;;;;;;30.50;11.50;;;;;;;-5.85;69.88;95502.19;5107735;28;20114;-75
2021/01/18 09:06:29;;;;;;;30.65;11.40;;;;;;;-5.85;68.53;95496.28;5105403;28;20070;-75
2021/01/18 09:09:07;;;;;;;31.70;14.55;;;;;;;-5.76;69.71;95501.50;5107321;28;20032;-75
2021/01/18 09:11:35;;;;;;;25.92;10.73;;;;;;;-5.85;68.01;95516.56;5105544;28;20448;-75
2021/01/18 09:14:04;;;;;;;18.85;9.15;;;;;;;-5.91;68.64;95477.25;5106312;28;20101;-75
2021/01/18 09:16:30;;;;;;;33.00;13.15;;;;;;;-5.54;69.18;95499.09;5107945;28;20054;-75
2021/01/18 09:19:06;;;;;;;35.25;12.65;;;;;;;-5.84;66.66;95437.00;5105015;28;20489;-75
2021/01/18 09:21:33;;;;;;;27.85;11.73;;;;;;;-4.99;66.26;95487.22;5107995;28;20039;-75
2021/01/18 09:24:06;;;;;;;41.00;16.20;;;;;;;-4.82;65.29;95486.75;5106620;28;20043;-74
2021/01/18 09:26:32;;;;;;;33.63;10.98;;;;;;;-5.01;64.88;95473.84;5106129;28;20048;-74
2021/01/18 09:28:59;;;;;;;19.13;9.05;;;;;;;-5.13;64.54;95477.34;5106813;28;20114;-75
2021/01/18 09:31:25;;;;;;;22.83;10.70;;;;;;;-5.27;65.05;95463.97;5106114;28;20062;-74
2021/01/18 09:33:52;;;;;;;24.88;11.40;;;;;;;-5.30;65.37;95476.09;5107919;28;20044;-76
2021/01/18 09:36:24;;;;;;;22.70;11.85;;;;;;;-5.14;66.62;95471.44;5106792;28;20585;-76
2021/01/18 09:38:50;;;;;;;28.35;12.43;;;;;;;-4.99;64.57;95484.69;5107060;27;20097;-73
2021/01/18 09:41:17;;;;;;;45.08;15.73;;;;;;;-5.18;63.88;95475.97;5106034;28;20052;-73
2021/01/18 09:43:44;;;;;;;44.33;15.93;;;;;;;-5.30;63.61;95481.97;5107003;28;20035;-74
2021/01/18 09:46:16;;;;;;;32.67;12.30;;;;;;;-5.34;64.02;95470.44;5106141;27;20044;-73
2021/01/18 09:48:50;;;;;;;35.83;12.27;;;;;;;-5.36;63.95;95467.22;5103596;27;20508;-73
2021/01/18 09:51:17;;;;;;;39.95;17.45;;;;;;;-5.24;64.20;95456.13;5106474;28;20443;-73
2021/01/18 09:53:44;;;;;;;46.58;16.42;;;;;;;-5.18;64.97;95442.94;5106797;28;20044;-73
2021/01/18 09:59:40;;;;;;;25.15;10.20;;;;;;;-4.72;60.85;95440.25;4996087;28;20049;-74
2021/01/18 10:02:12;;;;;;;18.98;8.63;;;;;;;-4.24;58.95;95444.88;5001314;28;20628;-75
2021/01/18 10:04:40;;;;;;;25.48;11.20;;;;;;;-4.29;59.10;95436.81;4984448;28;20128;-74
2021/01/18 10:07:09;;;;;;;20.23;10.30;;;;;;;-3.92;59.18;95426.19;5001415;28;20033;-75
2021/01/18 10:09:36;;;;;;;22.45;9.25;;;;;;;-3.79;58.75;95398.78;4985383;28;20435;-75
2021/01/18 10:12:04;;;;;;;25.63;11.20;;;;;;;-3.57;58.29;95432.63;5002564;28;20057;-74
2021/01/18 10:14:31;;;;;;;18.88;9.27;;;;;;;-3.72;57.51;95440.59;5002886;28;20041;-75
2021/01/18 10:17:03;;;;;;;24.20;11.35;;;;;;;-4.15;57.66;95444.13;5003981;28;20570;-74
2021/01/18 10:19:32;;;;;;;24.70;9.15;;;;;;;-4.30;58.98;95437.78;5004026;28;20420;-75
2021/01/18 10:22:01;;;;;;;16.23;8.77;;;;;;;-3.75;57.10;95430.66;5003135;28;20508;-75
2021/01/18 10:24:33;;;;;;;16.65;8.10;;;;;;;-3.74;56.48;95422.13;5002701;28;20511;-75
2021/01/18 10:27:07;;;;;;;21.35;10.10;;;;;;;-3.65;56.87;95436.63;4987695;28;20105;-75
2021/01/18 10:29:34;;;;;;;19.85;8.02;;;;;;;-3.35;55.85;95421.41;5003960;28;20046;-74
2021/01/18 10:32:00;;;;;;;23.23;11.93;;;;;;;-3.59;56.67;95411.56;4971861;28;20203;-75
2021/01/18 10:34:29;;;;;;;15.10;8.27;;;;;;;-3.75;56.83;95423.03;5004432;28;20072;-76
2021/01/18 10:37:08;;;;;;;31.60;14.13;;;;;;;-3.84;58.30;95411.06;5036684;28;20036;-76
2021/01/18 10:39:39;;;;;;;79.78;25.98;;;;;;;-3.29;56.87;95391.13;5104674;28;20035;-76
2021/01/18 10:42:18;;;;;;;19.40;8.70;;;;;;;-2.62;55.22;95416.81;5105312;28;20092;-75
2021/01/18 10:44:53;;;;;;;31.95;14.13;;;;;;;-2.39;53.20;95413.97;5105767;28;20048;-73
2021/01/18 10:47:24;;;;;;;31.75;14.00;;;;;;;-2.17;53.08;95402.66;5104629;28;20082;-73
2021/01/18 10:50:01;;;;;;;36.25;13.75;;;;;;;-1.75;51.88;95407.34;5105005;28;20613;-72
2021/01/18 10:52:37;;;;;;;19.63;8.75;;;;;;;-1.89;52.33;95400.97;5105499;28;20475;-72
2021/01/18 10:55:05;;;;;;;20.40;10.02;;;;;;;-2.04;50.83;95405.69;5104628;28;20059;-72
2021/01/18 10:57:48;;;;;;;24.02;10.75;;;;;;;-1.57;51.20;95399.75;5104819;28;20505;-72
2021/01/18 11:00:15;;;;;;;32.30;14.98;;;;;;;-1.04;49.81;95396.50;5105189;28;20050;-72
2021/01/18 11:02:52;;;;;;;22.42;10.82;;;;;;;-1.54;49.87;95404.59;5103804;28;20036;-70
2021/01/18 11:05:19;;;;;;;23.75;10.75;;;;;;;-2.46;51.44;95397.63;5104704;28;20047;-71
2021/01/18 11:07:46;;;;;;;17.13;7.22;;;;;;;-2.18;51.48;95416.34;5104817;28;20470;-72
2021/01/18 11:10:14;;;;;;;20.42;10.25;;;;;;;-1.86;51.12;95380.25;5104339;28;20055;-72
2021/01/18 11:12:43;;;;;;;22.85;9.73;;;;;;;-1.56;49.00;95396.25;5106094;28;20036;-71
2021/01/18 11:15:12;;;;;;;16.73;8.82;;;;;;;-1.27;48.18;95405.53;5104724;28;20108;-71
2021/01/18 11:17:39;;;;;;;15.32;7.88;;;;;;;-1.33;47.39;95395.88;5105487;28;20644;-70
2021/01/18 11:20:08;;;;;;;23.52;12.02;;;;;;;-1.43;48.23;95394.16;5103359;28;20491;-71
2021/01/18 11:22:35;;;;;;;24.90;11.15;;;;;;;-1.11;47.47;95380.13;5118076;28;20046;-71
2021/01/18 11:25:02;;;;;;;15.23;8.55;;;;;;;-1.40;48.46;95396.44;5102197;28;20418;-71
2021/01/18 11:27:28;;;;;;;20.40;9.35;;;;;;;-1.34;48.91;95389.97;5103093;28;20569;-70
2021/01/18 11:29:55;;;;;;;16.55;8.23;;;;;;;-1.50;48.68;95372.69;5104450;28;20043;-71
2021/01/18 11:32:22;;;;;;;48.67;19.30;;;;;;;-1.23;49.03;95386.41;5104531;28;20412;-71
2021/01/18 11:34:48;;;;;;;17.05;8.27;;;;;;;-1.69;49.35;95385.53;5104202;28;20039;-72
2021/01/18 11:37:15;;;;;;;20.33;9.90;;;;;;;-2.83;51.60;95409.28;5104058;28;20075;-71
2021/01/18 11:39:41;;;;;;;24.88;8.55;;;;;;;-2.82;52.47;95387.16;5105554;28;20050;-72